SIF451 OPNH-OPKC
Flight info
| Callsign | SIF451 |
|---|---|
| Flight time | 0h 37m |
| Altitude | 16000 |
| Route | NH NH1C |
| Aircraft | A320/M-SDE3FGHIRWY/LB1 |
Departure
| Time | 2026-04-30 20:39 |
|---|---|
| Airport | Shaheed Benazirabad Airport (OPNH) |
Arrival
| Time | 2026-04-30 21:16 |
|---|---|
| Airport | Jinnah International Airport (OPKC) |
| Time | Latitude | Longitude | Altitude | Speed | Heading |
|---|---|---|---|---|---|
| 2026-04-30 20:24 | 26.22125 | 68.38635 | 105 ft | 0 kts | 218° |
| 2026-04-30 20:33 | 26.22120 | 68.38644 | 105 ft | 2 kts | 85° |
| 2026-04-30 20:33 | 26.22105 | 68.38665 | 105 ft | 7 kts | 154° |
| 2026-04-30 20:34 | 26.22023 | 68.38746 | 105 ft | 8 kts | 116° |
| 2026-04-30 20:34 | 26.21991 | 68.38843 | 105 ft | 4 kts | 108° |
| 2026-04-30 20:35 | 26.21983 | 68.38867 | 105 ft | 2 kts | 110° |
| 2026-04-30 20:35 | 26.21971 | 68.38906 | 105 ft | 8 kts | 110° |
| 2026-04-30 20:35 | 26.22016 | 68.39033 | 106 ft | 25 kts | 22° |
| 2026-04-30 20:36 | 26.22229 | 68.39122 | 109 ft | 34 kts | 24° |
| 2026-04-30 20:36 | 26.22452 | 68.39218 | 108 ft | 35 kts | 19° |
| 2026-04-30 20:36 | 26.22883 | 68.39397 | 107 ft | 15 kts | 20° |
| 2026-04-30 20:37 | 26.22970 | 68.39446 | 107 ft | 8 kts | 39° |
| 2026-04-30 20:37 | 26.23005 | 68.39482 | 106 ft | 6 kts | 35° |
| 2026-04-30 20:37 | 26.23033 | 68.39478 | 105 ft | 3 kts | 301° |
| 2026-04-30 20:37 | 26.23028 | 68.39467 | 105 ft | 1 kts | 231° |
| 2026-04-30 20:38 | 26.22991 | 68.39441 | 106 ft | 20 kts | 208° |
| 2026-04-30 20:38 | 26.22666 | 68.39303 | 107 ft | 93 kts | 199° |
| 2026-04-30 20:38 | 26.21921 | 68.39011 | 107 ft | 158 kts | 202° |
| 2026-04-30 20:39 | 26.19716 | 68.37882 | 1618 ft | 176 kts | 212° |
| 2026-04-30 20:39 | 26.18631 | 68.37190 | 2438 ft | 185 kts | 217° |
| 2026-04-30 20:39 | 26.17473 | 68.36396 | 3133 ft | 209 kts | 219° |
| 2026-04-30 20:40 | 26.14989 | 68.34218 | 4560 ft | 258 kts | 225° |
| 2026-04-30 20:40 | 26.13557 | 68.32832 | 5257 ft | 282 kts | 223° |
| 2026-04-30 20:40 | 26.12056 | 68.31446 | 6532 ft | 284 kts | 223° |
| 2026-04-30 20:41 | 26.08780 | 68.28651 | 8648 ft | 307 kts | 218° |
| 2026-04-30 20:41 | 26.07054 | 68.27207 | 9838 ft | 313 kts | 218° |
| 2026-04-30 20:41 | 26.05306 | 68.25704 | 10808 ft | 323 kts | 220° |
| 2026-04-30 20:41 | 26.03505 | 68.24154 | 11821 ft | 331 kts | 220° |
| 2026-04-30 20:42 | 26.01555 | 68.22693 | 12662 ft | 344 kts | 212° |
| 2026-04-30 20:42 | 25.99414 | 68.21443 | 13296 ft | 350 kts | 209° |
| 2026-04-30 20:42 | 25.95012 | 68.18863 | 14514 ft | 356 kts | 213° |
| 2026-04-30 20:43 | 25.92895 | 68.17429 | 15090 ft | 358 kts | 216° |
| 2026-04-30 20:43 | 25.90800 | 68.15891 | 15503 ft | 360 kts | 218° |
| 2026-04-30 20:43 | 25.88743 | 68.14306 | 15622 ft | 357 kts | 219° |
| 2026-04-30 20:44 | 25.84785 | 68.11185 | 15656 ft | 343 kts | 219° |
| 2026-04-30 20:44 | 25.82842 | 68.09658 | 15654 ft | 342 kts | 219° |
| 2026-04-30 20:44 | 25.78782 | 68.06494 | 15664 ft | 377 kts | 219° |
| 2026-04-30 20:45 | 25.74244 | 68.02994 | 15657 ft | 415 kts | 218° |
| 2026-04-30 20:45 | 25.71802 | 68.01120 | 15662 ft | 428 kts | 218° |
| 2026-04-30 20:45 | 25.69339 | 67.99236 | 15661 ft | 432 kts | 218° |
| 2026-04-30 20:46 | 25.61888 | 67.93553 | 15672 ft | 433 kts | 218° |
| 2026-04-30 20:46 | 25.59406 | 67.91655 | 15676 ft | 433 kts | 218° |
| 2026-04-30 20:47 | 25.54419 | 67.87836 | 15673 ft | 432 kts | 218° |
| 2026-04-30 20:47 | 25.51989 | 67.85981 | 15445 ft | 418 kts | 218° |
| 2026-04-30 20:48 | 25.47137 | 67.82271 | 13546 ft | 427 kts | 217° |
| 2026-04-30 20:48 | 25.44707 | 67.80415 | 12802 ft | 423 kts | 217° |
| 2026-04-30 20:48 | 25.42306 | 67.78582 | 12161 ft | 417 kts | 217° |
| 2026-04-30 20:48 | 25.40694 | 67.77351 | 11707 ft | 413 kts | 217° |
| 2026-04-30 20:49 | 25.37585 | 67.74980 | 11012 ft | 403 kts | 217° |
| 2026-04-30 20:49 | 25.36051 | 67.73814 | 10926 ft | 390 kts | 217° |
| 2026-04-30 20:49 | 25.33865 | 67.72152 | 10827 ft | 373 kts | 217° |
| 2026-04-30 20:50 | 25.29779 | 67.69033 | 10583 ft | 343 kts | 217° |
| 2026-04-30 20:50 | 25.27863 | 67.67573 | 10467 ft | 330 kts | 217° |
| 2026-04-30 20:50 | 25.26010 | 67.66165 | 10357 ft | 319 kts | 217° |
| 2026-04-30 20:50 | 25.24214 | 67.64802 | 10215 ft | 309 kts | 217° |
| 2026-04-30 20:51 | 25.22467 | 67.63474 | 9987 ft | 303 kts | 217° |
| 2026-04-30 20:51 | 25.19172 | 67.60642 | 9581 ft | 300 kts | 224° |
| 2026-04-30 20:51 | 25.17589 | 67.59086 | 9036 ft | 304 kts | 225° |
| 2026-04-30 20:52 | 25.16015 | 67.57513 | 8769 ft | 298 kts | 225° |
| 2026-04-30 20:52 | 25.14486 | 67.55982 | 8424 ft | 295 kts | 225° |
| 2026-04-30 20:52 | 25.11487 | 67.52997 | 7381 ft | 285 kts | 225° |
| 2026-04-30 20:53 | 25.10002 | 67.51525 | 6798 ft | 280 kts | 225° |
| 2026-04-30 20:53 | 25.08566 | 67.50106 | 6220 ft | 275 kts | 225° |
| 2026-04-30 20:53 | 25.07157 | 67.48715 | 5608 ft | 271 kts | 225° |
| 2026-04-30 20:54 | 25.04389 | 67.45982 | 4376 ft | 263 kts | 225° |
| 2026-04-30 20:54 | 25.03070 | 67.44681 | 4106 ft | 244 kts | 226° |
| 2026-04-30 20:54 | 25.01847 | 67.43477 | 3974 ft | 223 kts | 226° |
| 2026-04-30 20:55 | 24.99678 | 67.41350 | 3766 ft | 193 kts | 228° |
| 2026-04-30 20:55 | 24.98673 | 67.40361 | 3692 ft | 188 kts | 228° |
| 2026-04-30 20:55 | 24.97735 | 67.39438 | 3626 ft | 181 kts | 229° |
| 2026-04-30 20:56 | 24.96170 | 67.37365 | 3423 ft | 172 kts | 257° |
| 2026-04-30 20:56 | 24.95849 | 67.36099 | 3254 ft | 173 kts | 258° |
| 2026-04-30 20:56 | 24.95210 | 67.33551 | 2843 ft | 172 kts | 258° |
| 2026-04-30 20:57 | 24.94891 | 67.32281 | 2631 ft | 171 kts | 258° |
| 2026-04-30 20:57 | 24.94577 | 67.31036 | 2426 ft | 166 kts | 258° |
| 2026-04-30 20:57 | 24.94277 | 67.29845 | 2223 ft | 163 kts | 258° |
| 2026-04-30 20:58 | 24.93687 | 67.27502 | 1821 ft | 149 kts | 258° |
| 2026-04-30 20:58 | 24.93409 | 67.26399 | 1634 ft | 150 kts | 258° |
| 2026-04-30 20:58 | 24.93144 | 67.25350 | 1459 ft | 135 kts | 257° |
| 2026-04-30 20:58 | 24.92901 | 67.24388 | 1282 ft | 127 kts | 259° |
| 2026-04-30 20:59 | 24.92443 | 67.22494 | 968 ft | 135 kts | 257° |
| 2026-04-30 20:59 | 24.92193 | 67.21476 | 913 ft | 134 kts | 256° |
| 2026-04-30 21:00 | 24.91660 | 67.19437 | 499 ft | 141 kts | 254° |
| 2026-04-30 21:00 | 24.91157 | 67.17443 | 117 ft | 125 kts | 257° |
| 2026-04-30 21:01 | 24.90889 | 67.15462 | 891 ft | 147 kts | 262° |
| 2026-04-30 21:01 | 24.90749 | 67.14316 | 1434 ft | 156 kts | 265° |
| 2026-04-30 21:01 | 24.90508 | 67.11849 | 2591 ft | 179 kts | 268° |
| 2026-04-30 21:02 | 24.90411 | 67.10381 | 2985 ft | 209 kts | 268° |
| 2026-04-30 21:02 | 24.90339 | 67.08804 | 3341 ft | 202 kts | 270° |
| 2026-04-30 21:02 | 24.90299 | 67.07273 | 3679 ft | 192 kts | 270° |
| 2026-04-30 21:02 | 24.90272 | 67.05895 | 3816 ft | 172 kts | 265° |
| 2026-04-30 21:03 | 24.89974 | 67.04558 | 3287 ft | 189 kts | 255° |
| 2026-04-30 21:03 | 24.89511 | 67.03143 | 2808 ft | 200 kts | 253° |
| 2026-04-30 21:03 | 24.88942 | 67.01761 | 2704 ft | 199 kts | 244° |
| 2026-04-30 21:03 | 24.88027 | 67.00597 | 2701 ft | 210 kts | 220° |
| 2026-04-30 21:04 | 24.86580 | 67.00125 | 2696 ft | 231 kts | 187° |
| 2026-04-30 21:04 | 24.84963 | 67.00559 | 2701 ft | 245 kts | 165° |
| 2026-04-30 21:04 | 24.81829 | 67.02139 | 2701 ft | 248 kts | 161° |
| 2026-04-30 21:05 | 24.80272 | 67.02977 | 2700 ft | 250 kts | 156° |
| 2026-04-30 21:05 | 24.79004 | 67.04313 | 2699 ft | 261 kts | 123° |
| 2026-04-30 21:05 | 24.78469 | 67.06215 | 2701 ft | 264 kts | 89° |
| 2026-04-30 21:05 | 24.78628 | 67.08224 | 2703 ft | 264 kts | 78° |
| 2026-04-30 21:06 | 24.78936 | 67.10202 | 2702 ft | 260 kts | 77° |
| 2026-04-30 21:06 | 24.79270 | 67.12153 | 2700 ft | 260 kts | 76° |
| 2026-04-30 21:06 | 24.79610 | 67.14107 | 2700 ft | 259 kts | 76° |
| 2026-04-30 21:06 | 24.79950 | 67.16068 | 2701 ft | 263 kts | 76° |
| 2026-04-30 21:07 | 24.80287 | 67.18038 | 2699 ft | 262 kts | 76° |
| 2026-04-30 21:07 | 24.80617 | 67.20005 | 2700 ft | 261 kts | 76° |
| 2026-04-30 21:07 | 24.80946 | 67.21970 | 2700 ft | 260 kts | 76° |
| 2026-04-30 21:07 | 24.81282 | 67.23935 | 2701 ft | 263 kts | 76° |
| 2026-04-30 21:08 | 24.81632 | 67.25919 | 2703 ft | 266 kts | 76° |
| 2026-04-30 21:08 | 24.81988 | 67.27913 | 2702 ft | 266 kts | 76° |
| 2026-04-30 21:08 | 24.82336 | 67.29914 | 2702 ft | 263 kts | 76° |
| 2026-04-30 21:08 | 24.82670 | 67.31884 | 2699 ft | 262 kts | 75° |
| 2026-04-30 21:09 | 24.83113 | 67.33820 | 2698 ft | 261 kts | 75° |
| 2026-04-30 21:09 | 24.83488 | 67.35775 | 2549 ft | 260 kts | 76° |
| 2026-04-30 21:09 | 24.84082 | 67.37602 | 2304 ft | 249 kts | 51° |
| 2026-04-30 21:09 | 24.85282 | 67.38853 | 2056 ft | 231 kts | 18° |
| 2026-04-30 21:10 | 24.86766 | 67.39244 | 1784 ft | 215 kts | 356° |
| 2026-04-30 21:10 | 24.88269 | 67.39268 | 1696 ft | 217 kts | 352° |
| 2026-04-30 21:10 | 24.89776 | 67.39230 | 1696 ft | 214 kts | 351° |
| 2026-04-30 21:10 | 24.91210 | 67.39170 | 1697 ft | 198 kts | 341° |
| 2026-04-30 21:11 | 24.92406 | 67.38637 | 1695 ft | 178 kts | 311° |
| 2026-04-30 21:11 | 24.93123 | 67.37572 | 1696 ft | 172 kts | 295° |
| 2026-04-30 21:11 | 24.93649 | 67.36393 | 1698 ft | 173 kts | 292° |
| 2026-04-30 21:11 | 24.94111 | 67.35167 | 1703 ft | 172 kts | 285° |
| 2026-04-30 21:12 | 24.94297 | 67.33882 | 1718 ft | 171 kts | 272° |
| 2026-04-30 21:12 | 24.94317 | 67.32580 | 1713 ft | 167 kts | 271° |
| 2026-04-30 21:12 | 24.94290 | 67.31738 | 1706 ft | 165 kts | 266° |
| 2026-04-30 21:12 | 24.94045 | 67.30099 | 1694 ft | 159 kts | 261° |
| 2026-04-30 21:13 | 24.93844 | 67.28948 | 1592 ft | 147 kts | 261° |
| 2026-04-30 21:13 | 24.93709 | 67.28216 | 1381 ft | 146 kts | 260° |
| 2026-04-30 21:13 | 24.93513 | 67.27133 | 1094 ft | 148 kts | 262° |
| 2026-04-30 21:13 | 24.93279 | 67.25887 | 1060 ft | 169 kts | 258° |
| 2026-04-30 21:14 | 24.92990 | 67.24613 | 1037 ft | 173 kts | 258° |
| 2026-04-30 21:14 | 24.92725 | 67.23408 | 1011 ft | 151 kts | 256° |
| 2026-04-30 21:14 | 24.92431 | 67.22353 | 910 ft | 139 kts | 250° |
| 2026-04-30 21:14 | 24.92127 | 67.21352 | 767 ft | 138 kts | 256° |
| 2026-04-30 21:15 | 24.91895 | 67.20328 | 668 ft | 136 kts | 255° |
| 2026-04-30 21:15 | 24.91624 | 67.19295 | 461 ft | 146 kts | 252° |
| 2026-04-30 21:15 | 24.91326 | 67.18187 | 258 ft | 154 kts | 255° |
| 2026-04-30 21:15 | 24.91042 | 67.17047 | 122 ft | 151 kts | 252° |
| 2026-04-30 21:16 | 24.90799 | 67.16038 | 102 ft | 89 kts | 257° |
| 2026-04-30 21:16 | 24.90719 | 67.15717 | 105 ft | 5 kts | 251° |
| 2026-04-30 21:16 | 24.90685 | 67.15610 | 106 ft | 25 kts | 250° |
| 2026-04-30 21:16 | 24.90628 | 67.15375 | 106 ft | 32 kts | 256° |
| 2026-04-30 21:17 | 24.90574 | 67.15155 | 107 ft | 24 kts | 254° |
| 2026-04-30 21:17 | 24.90528 | 67.14971 | 105 ft | 26 kts | 255° |
| 2026-04-30 21:17 | 24.90449 | 67.14789 | 105 ft | 27 kts | 224° |
| 2026-04-30 21:17 | 24.90326 | 67.14771 | 103 ft | 19 kts | 167° |
| 2026-04-30 21:18 | 24.90262 | 67.14827 | 105 ft | 8 kts | 116° |
| 2026-04-30 21:18 | 24.90241 | 67.14878 | 105 ft | 7 kts | 111° |
| 2026-04-30 21:18 | 24.90225 | 67.14930 | 104 ft | 7 kts | 106° |
| 2026-04-30 21:18 | 24.90216 | 67.14984 | 104 ft | 9 kts | 98° |
| 2026-04-30 21:19 | 24.90182 | 67.15149 | 103 ft | 33 kts | 104° |
| 2026-04-30 21:19 | 24.90143 | 67.15358 | 101 ft | 28 kts | 83° |
| 2026-04-30 21:19 | 24.90192 | 67.15573 | 102 ft | 29 kts | 75° |
| 2026-04-30 21:19 | 24.90242 | 67.15775 | 101 ft | 26 kts | 75° |
| 2026-04-30 21:20 | 24.90290 | 67.15970 | 102 ft | 27 kts | 75° |
| 2026-04-30 21:20 | 24.90343 | 67.16174 | 100 ft | 29 kts | 74° |
| 2026-04-30 21:20 | 24.90391 | 67.16367 | 102 ft | 1 kts | 92° |
| 2026-04-30 21:21 | 24.90368 | 67.16376 | 101 ft | 11 kts | 180° |
| 2026-04-30 21:21 | 24.90316 | 67.16365 | 100 ft | 7 kts | 167° |
| 2026-04-30 21:21 | 24.90292 | 67.16422 | 101 ft | 5 kts | 74° |
| 2026-04-30 21:22 | 24.90315 | 67.16512 | 100 ft | 16 kts | 75° |
| 2026-04-30 21:22 | 24.90258 | 67.16748 | 101 ft | 5 kts | 164° |
| 2026-04-30 21:23 | 24.90232 | 67.16748 | 101 ft | 3 kts | 195° |
| 2026-04-30 21:23 | 24.90225 | 67.16737 | 101 ft | 1 kts | 234° |
| 2026-04-30 21:23 | 24.90203 | 67.16697 | 101 ft | 3 kts | 240° |
| 2026-04-30 21:24 | 24.90196 | 67.16684 | 101 ft | 1 kts | 241° |
| 2026-04-30 21:24 | 24.90194 | 67.16679 | 101 ft | 0 kts | 241° |
| 2026-04-30 21:24 | 24.90193 | 67.16678 | 101 ft | 0 kts | 241° |
| 2026-04-30 21:24 | 24.90192 | 67.16675 | 99 ft | 0 kts | 241° |